Terminal Aerodrome Forecast
Issued by NWS Topeka, KS

Home | Current Version | Previous Version | Graphics & Text | Print | Product List | Glossary On
Versions: 1 2 3 4 5 6 7 8 9 10 11 12 13 14 15 16 17 18 19
000
FTUS43 KTOP 071200 AAA
TAFTOP
TAF AMD
KTOP 071207Z 0712/0812 04008KT P6SM BKN150
      TEMPO 0712/0715 01010G20KT -TSRA SCT020 BKN080CB
     FM071600 16008KT P6SM SCT100
     FM080400 08007KT P6SM VCTS SCT015CB OVC100=

USA.gov is the U.S. government's official web portal to all federal, state and local government web resources and services.